sensor_id;sensor_type;location;lat;lon;timestamp;P1;durP1;ratioP1;P2;durP2;ratioP2
10293;SDS011;5192;50.328;7.610;2023-02-20T00:01:26;5.57;;;3.83;;
10293;SDS011;5192;50.328;7.610;2023-02-20T00:03:57;9.20;;;4.40;;
10293;SDS011;5192;50.328;7.610;2023-02-20T00:06:23;6.97;;;4.30;;
10293;SDS011;5192;50.328;7.610;2023-02-20T00:08:50;5.77;;;4.10;;
10293;SDS011;5192;50.328;7.610;2023-02-20T00:11:16;6.77;;;4.63;;
10293;SDS011;5192;50.328;7.610;2023-02-20T00:13:48;6.23;;;4.17;;
10293;SDS011;5192;50.328;7.610;2023-02-20T00:16:13;5.30;;;3.93;;
10293;SDS011;5192;50.328;7.610;2023-02-20T00:18:43;4.83;;;3.90;;
10293;SDS011;5192;50.328;7.610;2023-02-20T00:21:10;6.37;;;4.07;;
10293;SDS011;5192;50.328;7.610;2023-02-20T00:23:36;6.87;;;4.17;;
10293;SDS011;5192;50.328;7.610;2023-02-20T00:26:14;5.77;;;4.13;;
10293;SDS011;5192;50.328;7.610;2023-02-20T00:28:41;6.90;;;4.97;;
10293;SDS011;5192;50.328;7.610;2023-02-20T00:31:11;4.87;;;4.30;;
10293;SDS011;5192;50.328;7.610;2023-02-20T00:33:39;4.93;;;4.07;;
10293;SDS011;5192;50.328;7.610;2023-02-20T00:36:12;7.87;;;4.07;;
10293;SDS011;5192;50.328;7.610;2023-02-20T00:38:42;6.73;;;4.30;;
10293;SDS011;5192;50.328;7.610;2023-02-20T00:41:10;5.27;;;4.10;;
10293;SDS011;5192;50.328;7.610;2023-02-20T00:43:39;7.03;;;4.47;;
10293;SDS011;5192;50.328;7.610;2023-02-20T00:46:09;7.03;;;4.77;;
10293;SDS011;5192;50.328;7.610;2023-02-20T00:48:39;6.93;;;4.77;;
10293;SDS011;5192;50.328;7.610;2023-02-20T00:51:05;6.00;;;4.10;;
10293;SDS011;5192;50.328;7.610;2023-02-20T00:53:33;4.97;;;3.93;;
10293;SDS011;5192;50.328;7.610;2023-02-20T00:56:01;4.73;;;4.00;;
10293;SDS011;5192;50.328;7.610;2023-02-20T00:58:28;4.67;;;4.23;;
10293;SDS011;5192;50.328;7.610;2023-02-20T01:00:54;5.37;;;3.63;;
10293;SDS011;5192;50.328;7.610;2023-02-20T01:03:21;5.37;;;4.03;;
10293;SDS011;5192;50.328;7.610;2023-02-20T01:05:48;5.23;;;3.93;;
10293;SDS011;5192;50.328;7.610;2023-02-20T01:08:16;5.80;;;3.97;;
10293;SDS011;5192;50.328;7.610;2023-02-20T01:10:43;5.67;;;4.20;;
10293;SDS011;5192;50.328;7.610;2023-02-20T01:13:10;5.17;;;3.80;;
10293;SDS011;5192;50.328;7.610;2023-02-20T01:15:36;5.33;;;3.83;;
10293;SDS011;5192;50.328;7.610;2023-02-20T01:18:03;6.07;;;4.07;;
10293;SDS011;5192;50.328;7.610;2023-02-20T01:20:31;6.43;;;3.80;;
10293;SDS011;5192;50.328;7.610;2023-02-20T01:22:58;5.23;;;4.53;;
10293;SDS011;5192;50.328;7.610;2023-02-20T01:25:26;5.03;;;4.00;;
10293;SDS011;5192;50.328;7.610;2023-02-20T01:27:53;7.57;;;4.50;;
10293;SDS011;5192;50.328;7.610;2023-02-20T01:30:21;6.50;;;4.90;;
10293;SDS011;5192;50.328;7.610;2023-02-20T01:32:48;6.17;;;4.97;;
10293;SDS011;5192;50.328;7.610;2023-02-20T01:35:15;7.03;;;5.20;;
10293;SDS011;5192;50.328;7.610;2023-02-20T01:37:44;6.33;;;5.07;;
10293;SDS011;5192;50.328;7.610;2023-02-20T01:40:16;7.53;;;5.50;;
10293;SDS011;5192;50.328;7.610;2023-02-20T01:42:47;5.80;;;5.10;;
10293;SDS011;5192;50.328;7.610;2023-02-20T01:47:54;6.57;;;5.27;;
10293;SDS011;5192;50.328;7.610;2023-02-20T01:50:44;6.17;;;4.77;;
10293;SDS011;5192;50.328;7.610;2023-02-20T01:53:14;6.30;;;4.90;;
10293;SDS011;5192;50.328;7.610;2023-02-20T01:55:49;9.73;;;5.30;;
10293;SDS011;5192;50.328;7.610;2023-02-20T01:58:41;7.23;;;5.30;;
10293;SDS011;5192;50.328;7.610;2023-02-20T02:01:12;10.67;;;6.73;;
10293;SDS011;5192;50.328;7.610;2023-02-20T02:03:41;7.63;;;5.67;;
10293;SDS011;5192;50.328;7.610;2023-02-20T02:06:13;10.43;;;5.60;;
10293;SDS011;5192;50.328;7.610;2023-02-20T02:08:42;7.77;;;5.80;;
10293;SDS011;5192;50.328;7.610;2023-02-20T02:13:54;9.07;;;5.53;;
10293;SDS011;5192;50.328;7.610;2023-02-20T02:25:18;10.53;;;7.10;;
10293;SDS011;5192;50.328;7.610;2023-02-20T02:43:15;11.43;;;8.33;;
10293;SDS011;5192;50.328;7.610;2023-02-20T02:46:00;12.13;;;7.23;;
10293;SDS011;5192;50.328;7.610;2023-02-20T02:48:39;11.73;;;7.47;;
10293;SDS011;5192;50.328;7.610;2023-02-20T02:51:11;10.00;;;7.20;;
10293;SDS011;5192;50.328;7.610;2023-02-20T02:56:43;14.50;;;8.83;;
10293;SDS011;5192;50.328;7.610;2023-02-20T02:59:13;17.63;;;9.47;;
10293;SDS011;5192;50.328;7.610;2023-02-20T03:01:59;14.70;;;9.47;;
10293;SDS011;5192;50.328;7.610;2023-02-20T03:04:29;16.53;;;9.53;;
10293;SDS011;5192;50.328;7.610;2023-02-20T03:06:58;14.20;;;9.10;;
10293;SDS011;5192;50.328;7.610;2023-02-20T03:09:34;14.73;;;8.90;;
10293;SDS011;5192;50.328;7.610;2023-02-20T03:12:07;14.10;;;9.37;;
10293;SDS011;5192;50.328;7.610;2023-02-20T03:18:00;15.23;;;9.40;;
10293;SDS011;5192;50.328;7.610;2023-02-20T03:20:47;13.03;;;9.20;;
10293;SDS011;5192;50.328;7.610;2023-02-20T03:23:41;14.10;;;10.07;;
10293;SDS011;5192;50.328;7.610;2023-02-20T03:26:32;14.03;;;9.10;;
10293;SDS011;5192;50.328;7.610;2023-02-20T03:29:20;15.40;;;9.80;;
10293;SDS011;5192;50.328;7.610;2023-02-20T03:32:01;16.57;;;10.40;;
10293;SDS011;5192;50.328;7.610;2023-02-20T03:34:55;15.67;;;10.47;;
10293;SDS011;5192;50.328;7.610;2023-02-20T03:37:42;20.60;;;11.20;;
10293;SDS011;5192;50.328;7.610;2023-02-20T03:40:31;16.77;;;10.13;;
10293;SDS011;5192;50.328;7.610;2023-02-20T03:43:17;14.23;;;9.43;;
10293;SDS011;5192;50.328;7.610;2023-02-20T03:46:03;18.63;;;11.23;;
10293;SDS011;5192;50.328;7.610;2023-02-20T03:48:44;17.97;;;10.13;;
10293;SDS011;5192;50.328;7.610;2023-02-20T03:51:16;17.17;;;11.27;;
10293;SDS011;5192;50.328;7.610;2023-02-20T03:54:00;17.50;;;10.03;;
10293;SDS011;5192;50.328;7.610;2023-02-20T03:56:36;14.87;;;10.57;;
10293;SDS011;5192;50.328;7.610;2023-02-20T03:59:07;20.50;;;10.90;;
10293;SDS011;5192;50.328;7.610;2023-02-20T04:01:56;13.27;;;8.97;;
10293;SDS011;5192;50.328;7.610;2023-02-20T04:04:25;15.57;;;9.57;;
10293;SDS011;5192;50.328;7.610;2023-02-20T04:07:00;14.70;;;9.00;;
10293;SDS011;5192;50.328;7.610;2023-02-20T04:09:32;16.90;;;9.23;;
10293;SDS011;5192;50.328;7.610;2023-02-20T04:12:07;15.60;;;8.80;;
10293;SDS011;5192;50.328;7.610;2023-02-20T04:14:58;16.03;;;8.30;;
10293;SDS011;5192;50.328;7.610;2023-02-20T04:17:31;13.50;;;8.37;;
10293;SDS011;5192;50.328;7.610;2023-02-20T04:20:03;13.83;;;8.27;;
10293;SDS011;5192;50.328;7.610;2023-02-20T04:22:30;14.33;;;8.63;;
10293;SDS011;5192;50.328;7.610;2023-02-20T04:28:00;13.97;;;7.77;;
10293;SDS011;5192;50.328;7.610;2023-02-20T04:30:27;10.93;;;7.23;;
10293;SDS011;5192;50.328;7.610;2023-02-20T04:32:54;14.10;;;7.93;;
10293;SDS011;5192;50.328;7.610;2023-02-20T04:35:21;13.20;;;7.63;;
10293;SDS011;5192;50.328;7.610;2023-02-20T04:37:47;11.87;;;7.03;;
10293;SDS011;5192;50.328;7.610;2023-02-20T04:40:16;10.03;;;7.03;;
10293;SDS011;5192;50.328;7.610;2023-02-20T04:42:44;9.77;;;7.37;;
10293;SDS011;5192;50.328;7.610;2023-02-20T04:45:12;12.50;;;6.97;;
10293;SDS011;5192;50.328;7.610;2023-02-20T04:47:40;9.33;;;6.10;;
10293;SDS011;5192;50.328;7.610;2023-02-20T04:50:12;11.00;;;6.67;;
10293;SDS011;5192;50.328;7.610;2023-02-20T04:52:44;11.90;;;6.47;;
10293;SDS011;5192;50.328;7.610;2023-02-20T04:55:13;11.70;;;6.47;;
10293;SDS011;5192;50.328;7.610;2023-02-20T04:57:40;11.10;;;6.80;;
10293;SDS011;5192;50.328;7.610;2023-02-20T05:00:06;9.00;;;6.60;;
10293;SDS011;5192;50.328;7.610;2023-02-20T05:02:37;13.87;;;7.33;;
10293;SDS011;5192;50.328;7.610;2023-02-20T05:05:04;10.67;;;6.20;;
10293;SDS011;5192;50.328;7.610;2023-02-20T05:07:43;9.53;;;5.87;;
10293;SDS011;5192;50.328;7.610;2023-02-20T05:10:17;11.03;;;6.07;;
10293;SDS011;5192;50.328;7.610;2023-02-20T05:12:45;11.27;;;6.27;;
10293;SDS011;5192;50.328;7.610;2023-02-20T05:15:13;12.23;;;6.50;;
10293;SDS011;5192;50.328;7.610;2023-02-20T05:17:41;9.10;;;5.93;;
10293;SDS011;5192;50.328;7.610;2023-02-20T05:20:07;14.20;;;7.10;;
10293;SDS011;5192;50.328;7.610;2023-02-20T05:22:35;7.67;;;5.63;;
10293;SDS011;5192;50.328;7.610;2023-02-20T05:25:03;10.47;;;6.17;;
10293;SDS011;5192;50.328;7.610;2023-02-20T05:27:30;10.03;;;5.77;;
10293;SDS011;5192;50.328;7.610;2023-02-20T05:29:58;9.30;;;5.40;;
10293;SDS011;5192;50.328;7.610;2023-02-20T05:32:26;8.70;;;5.20;;
10293;SDS011;5192;50.328;7.610;2023-02-20T05:34:54;7.10;;;5.10;;
10293;SDS011;5192;50.328;7.610;2023-02-20T05:37:22;11.40;;;6.03;;
10293;SDS011;5192;50.328;7.610;2023-02-20T05:39:50;8.30;;;6.00;;
10293;SDS011;5192;50.328;7.610;2023-02-20T05:42:16;9.77;;;5.77;;
10293;SDS011;5192;50.328;7.610;2023-02-20T05:44:43;10.13;;;6.53;;
10293;SDS011;5192;50.328;7.610;2023-02-20T05:47:09;9.33;;;6.07;;
10293;SDS011;5192;50.328;7.610;2023-02-20T05:49:36;10.03;;;5.77;;
10293;SDS011;5192;50.328;7.610;2023-02-20T05:52:04;8.63;;;5.40;;
10293;SDS011;5192;50.328;7.610;2023-02-20T05:54:37;9.73;;;5.33;;
10293;SDS011;5192;50.328;7.610;2023-02-20T05:57:03;7.97;;;5.70;;
10293;SDS011;5192;50.328;7.610;2023-02-20T05:59:31;12.37;;;5.40;;
10293;SDS011;5192;50.328;7.610;2023-02-20T06:01:57;12.97;;;6.30;;
10293;SDS011;5192;50.328;7.610;2023-02-20T06:04:26;10.63;;;5.83;;
10293;SDS011;5192;50.328;7.610;2023-02-20T06:06:55;7.93;;;5.87;;
10293;SDS011;5192;50.328;7.610;2023-02-20T06:09:21;8.87;;;5.27;;
10293;SDS011;5192;50.328;7.610;2023-02-20T06:11:52;8.83;;;5.70;;
10293;SDS011;5192;50.328;7.610;2023-02-20T06:14:24;8.53;;;5.97;;
10293;SDS011;5192;50.328;7.610;2023-02-20T06:16:55;9.00;;;5.03;;
10293;SDS011;5192;50.328;7.610;2023-02-20T06:19:23;7.77;;;5.53;;
10293;SDS011;5192;50.328;7.610;2023-02-20T06:21:50;9.10;;;5.50;;
10293;SDS011;5192;50.328;7.610;2023-02-20T06:24:18;11.13;;;6.77;;
10293;SDS011;5192;50.328;7.610;2023-02-20T06:26:45;8.93;;;5.80;;
10293;SDS011;5192;50.328;7.610;2023-02-20T06:29:14;8.07;;;5.10;;
10293;SDS011;5192;50.328;7.610;2023-02-20T06:31:42;8.77;;;5.90;;
10293;SDS011;5192;50.328;7.610;2023-02-20T06:34:12;11.33;;;5.50;;
10293;SDS011;5192;50.328;7.610;2023-02-20T06:36:41;11.43;;;5.83;;
10293;SDS011;5192;50.328;7.610;2023-02-20T06:39:09;7.50;;;5.17;;
10293;SDS011;5192;50.328;7.610;2023-02-20T06:41:38;9.50;;;5.50;;
10293;SDS011;5192;50.328;7.610;2023-02-20T06:44:04;11.47;;;6.23;;
10293;SDS011;5192;50.328;7.610;2023-02-20T06:46:32;10.07;;;6.50;;
10293;SDS011;5192;50.328;7.610;2023-02-20T06:49:00;10.87;;;6.37;;
10293;SDS011;5192;50.328;7.610;2023-02-20T06:51:31;11.83;;;7.07;;
10293;SDS011;5192;50.328;7.610;2023-02-20T06:53:59;10.93;;;6.13;;
10293;SDS011;5192;50.328;7.610;2023-02-20T06:56:28;10.13;;;6.20;;
10293;SDS011;5192;50.328;7.610;2023-02-20T06:58:58;9.63;;;6.40;;
10293;SDS011;5192;50.328;7.610;2023-02-20T07:01:35;11.40;;;6.43;;
10293;SDS011;5192;50.328;7.610;2023-02-20T07:04:19;13.50;;;6.67;;
10293;SDS011;5192;50.328;7.610;2023-02-20T07:06:49;10.70;;;6.13;;
10293;SDS011;5192;50.328;7.610;2023-02-20T07:09:15;14.40;;;6.93;;
10293;SDS011;5192;50.328;7.610;2023-02-20T07:11:42;8.63;;;6.23;;
10293;SDS011;5192;50.328;7.610;2023-02-20T07:14:09;11.83;;;6.33;;
10293;SDS011;5192;50.328;7.610;2023-02-20T07:16:37;9.13;;;6.20;;
10293;SDS011;5192;50.328;7.610;2023-02-20T07:19:04;8.73;;;6.30;;
10293;SDS011;5192;50.328;7.610;2023-02-20T07:21:31;10.23;;;5.63;;
10293;SDS011;5192;50.328;7.610;2023-02-20T07:23:58;7.73;;;5.40;;
10293;SDS011;5192;50.328;7.610;2023-02-20T07:26:27;11.37;;;6.03;;
10293;SDS011;5192;50.328;7.610;2023-02-20T07:28:56;10.77;;;5.87;;
10293;SDS011;5192;50.328;7.610;2023-02-20T07:31:28;9.70;;;5.13;;
10293;SDS011;5192;50.328;7.610;2023-02-20T07:33:54;9.87;;;5.63;;
10293;SDS011;5192;50.328;7.610;2023-02-20T07:36:23;9.30;;;5.67;;
10293;SDS011;5192;50.328;7.610;2023-02-20T07:38:59;9.27;;;5.93;;
10293;SDS011;5192;50.328;7.610;2023-02-20T07:41:28;10.43;;;5.60;;
10293;SDS011;5192;50.328;7.610;2023-02-20T07:43:57;7.40;;;5.63;;
10293;SDS011;5192;50.328;7.610;2023-02-20T07:46:24;7.47;;;5.57;;
10293;SDS011;5192;50.328;7.610;2023-02-20T07:48:52;11.20;;;6.40;;
10293;SDS011;5192;50.328;7.610;2023-02-20T07:51:20;7.57;;;5.67;;
10293;SDS011;5192;50.328;7.610;2023-02-20T07:53:48;10.20;;;6.13;;
10293;SDS011;5192;50.328;7.610;2023-02-20T07:56:18;12.60;;;5.77;;
10293;SDS011;5192;50.328;7.610;2023-02-20T07:58:47;8.10;;;5.33;;
10293;SDS011;5192;50.328;7.610;2023-02-20T08:01:14;10.97;;;6.43;;
10293;SDS011;5192;50.328;7.610;2023-02-20T08:03:43;7.57;;;5.87;;
10293;SDS011;5192;50.328;7.610;2023-02-20T08:06:09;6.87;;;5.57;;
10293;SDS011;5192;50.328;7.610;2023-02-20T08:08:37;9.30;;;5.77;;
10293;SDS011;5192;50.328;7.610;2023-02-20T08:11:05;7.60;;;5.33;;
10293;SDS011;5192;50.328;7.610;2023-02-20T08:13:32;8.50;;;5.17;;
10293;SDS011;5192;50.328;7.610;2023-02-20T08:15:59;11.00;;;5.33;;
10293;SDS011;5192;50.328;7.610;2023-02-20T08:18:26;6.97;;;5.03;;
10293;SDS011;5192;50.328;7.610;2023-02-20T08:20:54;8.93;;;5.60;;
10293;SDS011;5192;50.328;7.610;2023-02-20T08:23:21;7.37;;;5.03;;
10293;SDS011;5192;50.328;7.610;2023-02-20T08:25:48;8.67;;;5.33;;
10293;SDS011;5192;50.328;7.610;2023-02-20T08:28:17;9.70;;;5.27;;
10293;SDS011;5192;50.328;7.610;2023-02-20T08:30:47;7.13;;;5.20;;
10293;SDS011;5192;50.328;7.610;2023-02-20T08:33:13;8.77;;;5.20;;
10293;SDS011;5192;50.328;7.610;2023-02-20T08:35:40;9.17;;;5.67;;
10293;SDS011;5192;50.328;7.610;2023-02-20T08:38:21;6.07;;;4.63;;
10293;SDS011;5192;50.328;7.610;2023-02-20T08:41:06;9.50;;;5.93;;
10293;SDS011;5192;50.328;7.610;2023-02-20T08:43:34;8.33;;;5.40;;
10293;SDS011;5192;50.328;7.610;2023-02-20T08:46:04;8.80;;;6.07;;
10293;SDS011;5192;50.328;7.610;2023-02-20T08:48:32;10.07;;;5.73;;
10293;SDS011;5192;50.328;7.610;2023-02-20T08:50:59;7.30;;;5.10;;
10293;SDS011;5192;50.328;7.610;2023-02-20T08:53:27;5.87;;;5.27;;
10293;SDS011;5192;50.328;7.610;2023-02-20T08:55:55;7.57;;;5.17;;
10293;SDS011;5192;50.328;7.610;2023-02-20T08:58:23;9.30;;;5.70;;
10293;SDS011;5192;50.328;7.610;2023-02-20T09:00:50;8.33;;;4.70;;
10293;SDS011;5192;50.328;7.610;2023-02-20T09:03:17;7.77;;;5.60;;
10293;SDS011;5192;50.328;7.610;2023-02-20T09:05:46;7.60;;;5.20;;
10293;SDS011;5192;50.328;7.610;2023-02-20T09:08:13;8.17;;;5.60;;
10293;SDS011;5192;50.328;7.610;2023-02-20T09:10:40;8.20;;;6.23;;
10293;SDS011;5192;50.328;7.610;2023-02-20T09:13:08;8.43;;;5.67;;
10293;SDS011;5192;50.328;7.610;2023-02-20T09:15:35;5.90;;;4.70;;
10293;SDS011;5192;50.328;7.610;2023-02-20T09:18:05;6.90;;;5.07;;
10293;SDS011;5192;50.328;7.610;2023-02-20T09:20:36;6.90;;;5.40;;
10293;SDS011;5192;50.328;7.610;2023-02-20T09:23:04;7.57;;;5.57;;
10293;SDS011;5192;50.328;7.610;2023-02-20T09:25:33;9.47;;;5.80;;
10293;SDS011;5192;50.328;7.610;2023-02-20T09:28:23;8.17;;;6.10;;
10293;SDS011;5192;50.328;7.610;2023-02-20T09:30:49;9.67;;;6.20;;
10293;SDS011;5192;50.328;7.610;2023-02-20T09:33:19;10.47;;;7.20;;
10293;SDS011;5192;50.328;7.610;2023-02-20T09:35:46;10.47;;;6.10;;
10293;SDS011;5192;50.328;7.610;2023-02-20T09:38:14;8.53;;;5.73;;
10293;SDS011;5192;50.328;7.610;2023-02-20T09:40:41;8.03;;;5.70;;
10293;SDS011;5192;50.328;7.610;2023-02-20T09:46:12;7.27;;;6.00;;
10293;SDS011;5192;50.328;7.610;2023-02-20T09:51:44;7.57;;;5.57;;
10293;SDS011;5192;50.328;7.610;2023-02-20T09:57:25;9.27;;;6.60;;
10293;SDS011;5192;50.328;7.610;2023-02-20T10:00:03;9.63;;;6.37;;
10293;SDS011;5192;50.328;7.610;2023-02-20T10:02:57;12.70;;;6.30;;
10293;SDS011;5192;50.328;7.610;2023-02-20T10:05:59;10.30;;;7.03;;
10293;SDS011;5192;50.328;7.610;2023-02-20T10:08:30;10.57;;;6.33;;
10293;SDS011;5192;50.328;7.610;2023-02-20T10:10:59;8.23;;;6.53;;
10293;SDS011;5192;50.328;7.610;2023-02-20T10:22:46;9.87;;;6.40;;
10293;SDS011;5192;50.328;7.610;2023-02-20T10:25:34;7.23;;;5.53;;
10293;SDS011;5192;50.328;7.610;2023-02-20T10:28:08;7.50;;;5.33;;
10293;SDS011;5192;50.328;7.610;2023-02-20T10:30:47;9.23;;;5.87;;
10293;SDS011;5192;50.328;7.610;2023-02-20T10:33:46;11.70;;;6.67;;
10293;SDS011;5192;50.328;7.610;2023-02-20T10:39:11;8.90;;;5.90;;
10293;SDS011;5192;50.328;7.610;2023-02-20T10:41:56;7.53;;;5.50;;
10293;SDS011;5192;50.328;7.610;2023-02-20T10:44:59;8.70;;;5.70;;
10293;SDS011;5192;50.328;7.610;2023-02-20T10:47:56;8.57;;;5.93;;
10293;SDS011;5192;50.328;7.610;2023-02-20T10:50:57;10.20;;;5.87;;
10293;SDS011;5192;50.328;7.610;2023-02-20T10:56:58;10.07;;;5.77;;
10293;SDS011;5192;50.328;7.610;2023-02-20T11:00:03;9.30;;;6.50;;
10293;SDS011;5192;50.328;7.610;2023-02-20T11:02:37;10.40;;;6.27;;
10293;SDS011;5192;50.328;7.610;2023-02-20T11:05:13;9.70;;;6.17;;
10293;SDS011;5192;50.328;7.610;2023-02-20T11:07:53;11.87;;;7.00;;
10293;SDS011;5192;50.328;7.610;2023-02-20T11:10:20;9.33;;;5.93;;
10293;SDS011;5192;50.328;7.610;2023-02-20T11:15:35;11.57;;;6.40;;
10293;SDS011;5192;50.328;7.610;2023-02-20T11:18:04;9.90;;;7.27;;
10293;SDS011;5192;50.328;7.610;2023-02-20T11:21:04;11.27;;;6.97;;
10293;SDS011;5192;50.328;7.610;2023-02-20T11:23:41;10.23;;;6.40;;
10293;SDS011;5192;50.328;7.610;2023-02-20T11:26:24;12.57;;;6.67;;
10293;SDS011;5192;50.328;7.610;2023-02-20T11:29:20;8.60;;;6.13;;
10293;SDS011;5192;50.328;7.610;2023-02-20T11:31:48;8.80;;;6.03;;
10293;SDS011;5192;50.328;7.610;2023-02-20T11:34:17;11.83;;;6.90;;
10293;SDS011;5192;50.328;7.610;2023-02-20T11:36:52;11.33;;;6.67;;
10293;SDS011;5192;50.328;7.610;2023-02-20T11:39:29;10.13;;;7.20;;
10293;SDS011;5192;50.328;7.610;2023-02-20T11:42:05;10.43;;;6.27;;
10293;SDS011;5192;50.328;7.610;2023-02-20T11:44:45;9.70;;;6.83;;
10293;SDS011;5192;50.328;7.610;2023-02-20T11:50:52;9.37;;;6.57;;
10293;SDS011;5192;50.328;7.610;2023-02-20T11:53:25;12.50;;;6.30;;
10293;SDS011;5192;50.328;7.610;2023-02-20T11:56:07;11.30;;;6.63;;
10293;SDS011;5192;50.328;7.610;2023-02-20T11:58:45;10.93;;;6.90;;
10293;SDS011;5192;50.328;7.610;2023-02-20T12:01:32;10.93;;;6.90;;
10293;SDS011;5192;50.328;7.610;2023-02-20T12:04:17;11.90;;;6.60;;
10293;SDS011;5192;50.328;7.610;2023-02-20T12:06:51;11.80;;;7.00;;
10293;SDS011;5192;50.328;7.610;2023-02-20T12:09:19;10.17;;;6.73;;
10293;SDS011;5192;50.328;7.610;2023-02-20T12:11:52;12.70;;;6.60;;
10293;SDS011;5192;50.328;7.610;2023-02-20T12:14:21;12.40;;;7.10;;
10293;SDS011;5192;50.328;7.610;2023-02-20T12:16:57;8.37;;;6.63;;
10293;SDS011;5192;50.328;7.610;2023-02-20T12:20:10;8.20;;;6.23;;
10293;SDS011;5192;50.328;7.610;2023-02-20T12:22:47;14.00;;;6.90;;
10293;SDS011;5192;50.328;7.610;2023-02-20T12:28:26;10.37;;;6.80;;
10293;SDS011;5192;50.328;7.610;2023-02-20T12:34:16;9.90;;;6.37;;
10293;SDS011;5192;50.328;7.610;2023-02-20T12:43:17;9.17;;;5.87;;
10293;SDS011;5192;50.328;7.610;2023-02-20T12:46:49;9.63;;;6.17;;
10293;SDS011;5192;50.328;7.610;2023-02-20T12:58:19;6.97;;;5.20;;
10293;SDS011;5192;50.328;7.610;2023-02-20T13:01:02;7.23;;;5.57;;
10293;SDS011;5192;50.328;7.610;2023-02-20T13:12:27;6.57;;;4.73;;
10293;SDS011;5192;50.328;7.610;2023-02-20T13:18:17;7.27;;;5.27;;
10293;SDS011;5192;50.328;7.610;2023-02-20T13:20:51;6.60;;;4.47;;
10293;SDS011;5192;50.328;7.610;2023-02-20T13:34:53;5.63;;;4.43;;
10293;SDS011;5192;50.328;7.610;2023-02-20T13:37:50;5.53;;;3.83;;
10293;SDS011;5192;50.328;7.610;2023-02-20T13:43:26;7.10;;;4.90;;
10293;SDS011;5192;50.328;7.610;2023-02-20T13:48:50;5.80;;;4.80;;
10293;SDS011;5192;50.328;7.610;2023-02-20T13:53:56;7.33;;;4.20;;
10293;SDS011;5192;50.328;7.610;2023-02-20T13:59:37;8.17;;;4.60;;
10293;SDS011;5192;50.328;7.610;2023-02-20T14:02:18;7.13;;;3.90;;
10293;SDS011;5192;50.328;7.610;2023-02-20T14:04:58;6.00;;;4.40;;
10293;SDS011;5192;50.328;7.610;2023-02-20T14:07:37;5.70;;;4.07;;
10293;SDS011;5192;50.328;7.610;2023-02-20T14:15:51;6.97;;;4.27;;
10293;SDS011;5192;50.328;7.610;2023-02-20T14:18:28;7.23;;;3.80;;
10293;SDS011;5192;50.328;7.610;2023-02-20T14:21:18;6.10;;;4.37;;
10293;SDS011;5192;50.328;7.610;2023-02-20T14:23:45;7.03;;;4.00;;
10293;SDS011;5192;50.328;7.610;2023-02-20T14:29:00;7.43;;;4.47;;
10293;SDS011;5192;50.328;7.610;2023-02-20T14:31:30;8.70;;;4.20;;
10293;SDS011;5192;50.328;7.610;2023-02-20T14:33:59;8.03;;;4.10;;
10293;SDS011;5192;50.328;7.610;2023-02-20T14:39:56;6.87;;;4.17;;
10293;SDS011;5192;50.328;7.610;2023-02-20T14:42:59;5.93;;;3.83;;
10293;SDS011;5192;50.328;7.610;2023-02-20T14:45:26;6.47;;;4.03;;
10293;SDS011;5192;50.328;7.610;2023-02-20T14:47:55;6.60;;;4.20;;
10293;SDS011;5192;50.328;7.610;2023-02-20T14:55:56;7.97;;;4.03;;
10293;SDS011;5192;50.328;7.610;2023-02-20T14:58:34;5.33;;;3.43;;
10293;SDS011;5192;50.328;7.610;2023-02-20T15:01:50;6.40;;;4.23;;
10293;SDS011;5192;50.328;7.610;2023-02-20T15:04:11;6.53;;;4.03;;
10293;SDS011;5192;50.328;7.610;2023-02-20T15:06:40;9.13;;;4.10;;
10293;SDS011;5192;50.328;7.610;2023-02-20T15:09:11;5.53;;;3.60;;
10293;SDS011;5192;50.328;7.610;2023-02-20T15:11:54;6.13;;;3.90;;
10293;SDS011;5192;50.328;7.610;2023-02-20T15:14:25;5.13;;;3.50;;
10293;SDS011;5192;50.328;7.610;2023-02-20T15:19:55;7.07;;;3.57;;
10293;SDS011;5192;50.328;7.610;2023-02-20T15:22:34;7.90;;;3.70;;
10293;SDS011;5192;50.328;7.610;2023-02-20T15:33:36;4.87;;;4.00;;
10293;SDS011;5192;50.328;7.610;2023-02-20T15:36:23;8.23;;;3.53;;
10293;SDS011;5192;50.328;7.610;2023-02-20T15:38:54;3.57;;;3.03;;
10293;SDS011;5192;50.328;7.610;2023-02-20T15:41:34;4.63;;;3.20;;
10293;SDS011;5192;50.328;7.610;2023-02-20T15:44:01;6.17;;;3.57;;
10293;SDS011;5192;50.328;7.610;2023-02-20T15:46:30;5.53;;;4.03;;
10293;SDS011;5192;50.328;7.610;2023-02-20T15:49:00;6.27;;;3.93;;
10293;SDS011;5192;50.328;7.610;2023-02-20T15:51:29;5.90;;;3.40;;
10293;SDS011;5192;50.328;7.610;2023-02-20T15:54:03;4.50;;;2.83;;
10293;SDS011;5192;50.328;7.610;2023-02-20T15:56:32;6.03;;;3.57;;
10293;SDS011;5192;50.328;7.610;2023-02-20T15:59:01;5.37;;;3.47;;
10293;SDS011;5192;50.328;7.610;2023-02-20T16:01:32;3.97;;;3.57;;
10293;SDS011;5192;50.328;7.610;2023-02-20T16:04:00;4.87;;;3.27;;
10293;SDS011;5192;50.328;7.610;2023-02-20T16:06:26;6.20;;;3.33;;
10293;SDS011;5192;50.328;7.610;2023-02-20T16:08:54;3.37;;;2.80;;
10293;SDS011;5192;50.328;7.610;2023-02-20T16:11:22;5.73;;;4.07;;
10293;SDS011;5192;50.328;7.610;2023-02-20T16:13:51;5.67;;;3.60;;
10293;SDS011;5192;50.328;7.610;2023-02-20T16:19:19;5.00;;;3.17;;
10293;SDS011;5192;50.328;7.610;2023-02-20T16:21:46;4.60;;;3.30;;
10293;SDS011;5192;50.328;7.610;2023-02-20T16:24:13;5.20;;;3.10;;
10293;SDS011;5192;50.328;7.610;2023-02-20T16:26:41;5.30;;;3.30;;
10293;SDS011;5192;50.328;7.610;2023-02-20T16:29:44;5.53;;;3.20;;
10293;SDS011;5192;50.328;7.610;2023-02-20T16:32:15;5.77;;;3.40;;
10293;SDS011;5192;50.328;7.610;2023-02-20T16:34:45;4.80;;;3.20;;
10293;SDS011;5192;50.328;7.610;2023-02-20T16:37:12;4.30;;;3.10;;
10293;SDS011;5192;50.328;7.610;2023-02-20T16:39:39;4.77;;;3.20;;
10293;SDS011;5192;50.328;7.610;2023-02-20T16:45:09;6.60;;;3.40;;
10293;SDS011;5192;50.328;7.610;2023-02-20T16:47:38;5.67;;;3.50;;
10293;SDS011;5192;50.328;7.610;2023-02-20T16:50:11;6.93;;;3.50;;
10293;SDS011;5192;50.328;7.610;2023-02-20T16:52:41;5.77;;;3.23;;
10293;SDS011;5192;50.328;7.610;2023-02-20T16:55:18;4.40;;;3.30;;
10293;SDS011;5192;50.328;7.610;2023-02-20T16:57:57;6.27;;;3.33;;
10293;SDS011;5192;50.328;7.610;2023-02-20T17:00:26;4.50;;;2.90;;
10293;SDS011;5192;50.328;7.610;2023-02-20T17:03:06;6.53;;;4.00;;
10293;SDS011;5192;50.328;7.610;2023-02-20T17:05:35;6.27;;;3.33;;
10293;SDS011;5192;50.328;7.610;2023-02-20T17:08:04;8.10;;;3.53;;
10293;SDS011;5192;50.328;7.610;2023-02-20T17:10:31;5.90;;;4.10;;
10293;SDS011;5192;50.328;7.610;2023-02-20T17:12:57;5.23;;;3.23;;
10293;SDS011;5192;50.328;7.610;2023-02-20T17:15:25;6.07;;;3.40;;
10293;SDS011;5192;50.328;7.610;2023-02-20T17:17:52;7.67;;;3.90;;
10293;SDS011;5192;50.328;7.610;2023-02-20T17:20:21;6.60;;;3.70;;
10293;SDS011;5192;50.328;7.610;2023-02-20T17:22:53;8.03;;;4.30;;
10293;SDS011;5192;50.328;7.610;2023-02-20T17:25:21;4.70;;;3.67;;
10293;SDS011;5192;50.328;7.610;2023-02-20T17:27:50;5.10;;;4.00;;
10293;SDS011;5192;50.328;7.610;2023-02-20T17:30:18;5.90;;;4.03;;
10293;SDS011;5192;50.328;7.610;2023-02-20T17:32:45;7.17;;;4.27;;
10293;SDS011;5192;50.328;7.610;2023-02-20T17:35:14;8.17;;;3.50;;
10293;SDS011;5192;50.328;7.610;2023-02-20T17:37:39;5.47;;;4.30;;
10293;SDS011;5192;50.328;7.610;2023-02-20T17:40:07;8.67;;;4.03;;
10293;SDS011;5192;50.328;7.610;2023-02-20T17:42:34;7.30;;;4.03;;
10293;SDS011;5192;50.328;7.610;2023-02-20T17:45:03;9.77;;;4.37;;
10293;SDS011;5192;50.328;7.610;2023-02-20T17:47:30;8.17;;;4.10;;
10293;SDS011;5192;50.328;7.610;2023-02-20T17:49:59;6.10;;;4.07;;
10293;SDS011;5192;50.328;7.610;2023-02-20T17:52:26;8.93;;;4.30;;
10293;SDS011;5192;50.328;7.610;2023-02-20T17:54:54;5.03;;;4.10;;
10293;SDS011;5192;50.328;7.610;2023-02-20T17:57:20;7.43;;;4.60;;
10293;SDS011;5192;50.328;7.610;2023-02-20T17:59:46;7.20;;;4.63;;
10293;SDS011;5192;50.328;7.610;2023-02-20T18:02:14;7.37;;;4.53;;
10293;SDS011;5192;50.328;7.610;2023-02-20T18:04:42;6.43;;;4.33;;
10293;SDS011;5192;50.328;7.610;2023-02-20T18:07:10;8.70;;;5.13;;
10293;SDS011;5192;50.328;7.610;2023-02-20T18:09:38;10.40;;;5.03;;